sensor_id;sensor_type;location;lat;lon;timestamp;temperature;humidity
37786;DHT22;23625;48.784;9.336;2022-12-11T00:00:49;-0.20;99.90
37786;DHT22;23625;48.784;9.336;2022-12-11T00:03:18;-0.20;99.90
37786;DHT22;23625;48.784;9.336;2022-12-11T00:05:44;-0.20;99.90
37786;DHT22;23625;48.784;9.336;2022-12-11T00:08:10;-0.20;99.90
37786;DHT22;23625;48.784;9.336;2022-12-11T00:10:37;-0.20;99.90
37786;DHT22;23625;48.784;9.336;2022-12-11T00:13:02;-0.20;99.90
37786;DHT22;23625;48.784;9.336;2022-12-11T00:15:28;-0.20;99.90
37786;DHT22;23625;48.784;9.336;2022-12-11T00:17:54;-0.10;99.90
37786;DHT22;23625;48.784;9.336;2022-12-11T00:20:19;-0.10;99.90
37786;DHT22;23625;48.784;9.336;2022-12-11T00:22:45;-0.10;99.90
37786;DHT22;23625;48.784;9.336;2022-12-11T00:25:10;-0.10;99.90
37786;DHT22;23625;48.784;9.336;2022-12-11T00:27:36;-0.10;99.90
37786;DHT22;23625;48.784;9.336;2022-12-11T00:30:03;-0.10;99.90
37786;DHT22;23625;48.784;9.336;2022-12-11T00:32:29;-0.10;99.90
37786;DHT22;23625;48.784;9.336;2022-12-11T00:34:54;-0.10;99.90
37786;DHT22;23625;48.784;9.336;2022-12-11T00:37:20;0.00;99.90
37786;DHT22;23625;48.784;9.336;2022-12-11T00:39:45;0.00;99.90
37786;DHT22;23625;48.784;9.336;2022-12-11T00:42:11;0.00;99.90
37786;DHT22;23625;48.784;9.336;2022-12-11T00:44:36;-0.10;99.90
37786;DHT22;23625;48.784;9.336;2022-12-11T00:47:03;-0.10;99.90
37786;DHT22;23625;48.784;9.336;2022-12-11T00:49:28;-0.10;99.90
37786;DHT22;23625;48.784;9.336;2022-12-11T00:51:54;-0.10;99.90
37786;DHT22;23625;48.784;9.336;2022-12-11T00:54:19;-0.10;99.90
37786;DHT22;23625;48.784;9.336;2022-12-11T00:56:45;-0.10;99.90
37786;DHT22;23625;48.784;9.336;2022-12-11T00:59:10;-0.10;99.90
37786;DHT22;23625;48.784;9.336;2022-12-11T01:01:36;0.00;99.90
37786;DHT22;23625;48.784;9.336;2022-12-11T01:04:02;-0.10;99.90
37786;DHT22;23625;48.784;9.336;2022-12-11T01:06:27;-0.10;99.90
37786;DHT22;23625;48.784;9.336;2022-12-11T01:08:54;-0.20;99.90
37786;DHT22;23625;48.784;9.336;2022-12-11T01:11:39;-0.20;99.90
37786;DHT22;23625;48.784;9.336;2022-12-11T01:14:06;-0.20;99.90
37786;DHT22;23625;48.784;9.336;2022-12-11T01:16:32;-0.30;99.90
37786;DHT22;23625;48.784;9.336;2022-12-11T01:18:57;-0.30;99.90
37786;DHT22;23625;48.784;9.336;2022-12-11T01:21:23;-0.30;99.90
37786;DHT22;23625;48.784;9.336;2022-12-11T01:23:50;-0.30;99.90
37786;DHT22;23625;48.784;9.336;2022-12-11T01:26:15;-0.30;99.90
37786;DHT22;23625;48.784;9.336;2022-12-11T01:28:42;-0.30;99.90
37786;DHT22;23625;48.784;9.336;2022-12-11T01:31:12;-0.30;99.90
37786;DHT22;23625;48.784;9.336;2022-12-11T01:33:39;-0.20;99.90
37786;DHT22;23625;48.784;9.336;2022-12-11T01:36:14;-0.30;99.90
37786;DHT22;23625;48.784;9.336;2022-12-11T01:38:40;-0.30;99.90
37786;DHT22;23625;48.784;9.336;2022-12-11T01:41:07;-0.30;99.90
37786;DHT22;23625;48.784;9.336;2022-12-11T01:43:33;-0.30;99.90
37786;DHT22;23625;48.784;9.336;2022-12-11T01:45:58;-0.30;99.90
37786;DHT22;23625;48.784;9.336;2022-12-11T01:48:27;-0.20;99.90
37786;DHT22;23625;48.784;9.336;2022-12-11T01:50:57;-0.30;99.90
37786;DHT22;23625;48.784;9.336;2022-12-11T01:53:30;-0.20;99.90
37786;DHT22;23625;48.784;9.336;2022-12-11T01:55:58;-0.20;99.90
37786;DHT22;23625;48.784;9.336;2022-12-11T01:58:28;-0.20;99.90
37786;DHT22;23625;48.784;9.336;2022-12-11T02:00:54;-0.20;99.90
37786;DHT22;23625;48.784;9.336;2022-12-11T02:03:21;-0.20;99.90
37786;DHT22;23625;48.784;9.336;2022-12-11T02:05:47;-0.20;99.90
37786;DHT22;23625;48.784;9.336;2022-12-11T02:08:13;-0.20;99.90
37786;DHT22;23625;48.784;9.336;2022-12-11T02:10:52;-0.20;99.90
37786;DHT22;23625;48.784;9.336;2022-12-11T02:13:22;-0.20;99.90
37786;DHT22;23625;48.784;9.336;2022-12-11T02:15:59;-0.20;99.90
37786;DHT22;23625;48.784;9.336;2022-12-11T02:18:38;-0.20;99.90
37786;DHT22;23625;48.784;9.336;2022-12-11T02:21:25;-0.20;99.90
37786;DHT22;23625;48.784;9.336;2022-12-11T02:29:20;-0.20;99.90
37786;DHT22;23625;48.784;9.336;2022-12-11T02:31:53;-0.20;99.90
37786;DHT22;23625;48.784;9.336;2022-12-11T02:37:50;-0.30;99.90
37786;DHT22;23625;48.784;9.336;2022-12-11T02:40:23;-0.30;99.90
37786;DHT22;23625;48.784;9.336;2022-12-11T02:42:51;-0.30;99.90
37786;DHT22;23625;48.784;9.336;2022-12-11T02:45:18;-0.30;99.90
37786;DHT22;23625;48.784;9.336;2022-12-11T02:47:46;-0.30;99.90
37786;DHT22;23625;48.784;9.336;2022-12-11T02:50:15;-0.30;99.90
37786;DHT22;23625;48.784;9.336;2022-12-11T02:52:43;-0.30;99.90
37786;DHT22;23625;48.784;9.336;2022-12-11T02:55:12;-0.30;99.90
37786;DHT22;23625;48.784;9.336;2022-12-11T02:57:46;-0.30;99.90
37786;DHT22;23625;48.784;9.336;2022-12-11T03:00:13;-0.30;99.90
37786;DHT22;23625;48.784;9.336;2022-12-11T03:02:40;-0.20;99.90
37786;DHT22;23625;48.784;9.336;2022-12-11T03:05:08;-0.20;99.90
37786;DHT22;23625;48.784;9.336;2022-12-11T03:07:37;-0.20;99.90
37786;DHT22;23625;48.784;9.336;2022-12-11T03:10:07;-0.20;99.90
37786;DHT22;23625;48.784;9.336;2022-12-11T03:12:35;-0.20;99.90
37786;DHT22;23625;48.784;9.336;2022-12-11T03:15:05;-0.20;99.90
37786;DHT22;23625;48.784;9.336;2022-12-11T03:22:50;-0.20;99.90
37786;DHT22;23625;48.784;9.336;2022-12-11T03:25:22;-0.10;99.90
37786;DHT22;23625;48.784;9.336;2022-12-11T03:27:57;0.00;99.90
37786;DHT22;23625;48.784;9.336;2022-12-11T03:30:24;-0.10;99.90
37786;DHT22;23625;48.784;9.336;2022-12-11T03:33:10;-0.20;99.90
37786;DHT22;23625;48.784;9.336;2022-12-11T03:35:49;-0.20;99.90
37786;DHT22;23625;48.784;9.336;2022-12-11T03:38:20;-0.30;99.90
37786;DHT22;23625;48.784;9.336;2022-12-11T03:40:50;-0.30;99.90
37786;DHT22;23625;48.784;9.336;2022-12-11T03:43:19;-0.30;99.90
37786;DHT22;23625;48.784;9.336;2022-12-11T03:45:47;-0.30;99.90
37786;DHT22;23625;48.784;9.336;2022-12-11T03:48:13;-0.30;99.90
37786;DHT22;23625;48.784;9.336;2022-12-11T03:50:40;-0.40;99.90
37786;DHT22;23625;48.784;9.336;2022-12-11T03:53:06;-0.40;99.90
37786;DHT22;23625;48.784;9.336;2022-12-11T03:55:32;-0.40;99.90
37786;DHT22;23625;48.784;9.336;2022-12-11T03:58:01;-0.40;99.90
37786;DHT22;23625;48.784;9.336;2022-12-11T04:00:26;-0.40;99.90
37786;DHT22;23625;48.784;9.336;2022-12-11T04:02:52;-0.40;99.90
37786;DHT22;23625;48.784;9.336;2022-12-11T04:05:36;-0.40;99.90
37786;DHT22;23625;48.784;9.336;2022-12-11T04:08:02;-0.40;99.90
37786;DHT22;23625;48.784;9.336;2022-12-11T04:10:28;-0.40;99.90
37786;DHT22;23625;48.784;9.336;2022-12-11T04:12:53;-0.40;99.90
37786;DHT22;23625;48.784;9.336;2022-12-11T04:15:19;-0.40;99.90
37786;DHT22;23625;48.784;9.336;2022-12-11T04:17:44;-0.40;99.90
37786;DHT22;23625;48.784;9.336;2022-12-11T04:20:29;-0.40;99.90
37786;DHT22;23625;48.784;9.336;2022-12-11T04:23:15;-0.40;99.90
37786;DHT22;23625;48.784;9.336;2022-12-11T04:26:12;-0.50;99.90
37786;DHT22;23625;48.784;9.336;2022-12-11T04:28:39;-0.50;99.90
37786;DHT22;23625;48.784;9.336;2022-12-11T04:31:05;-0.50;99.90
37786;DHT22;23625;48.784;9.336;2022-12-11T04:33:31;-0.50;99.90
37786;DHT22;23625;48.784;9.336;2022-12-11T04:35:57;-0.50;99.90
37786;DHT22;23625;48.784;9.336;2022-12-11T04:38:23;-0.60;99.90
37786;DHT22;23625;48.784;9.336;2022-12-11T04:40:55;-0.60;99.90
37786;DHT22;23625;48.784;9.336;2022-12-11T04:43:21;-0.60;99.90
37786;DHT22;23625;48.784;9.336;2022-12-11T04:45:46;-0.70;99.90
37786;DHT22;23625;48.784;9.336;2022-12-11T04:48:12;-0.70;99.90
37786;DHT22;23625;48.784;9.336;2022-12-11T04:50:37;-0.70;99.90
37786;DHT22;23625;48.784;9.336;2022-12-11T04:53:03;-0.70;99.90
37786;DHT22;23625;48.784;9.336;2022-12-11T04:55:28;-0.70;99.90
37786;DHT22;23625;48.784;9.336;2022-12-11T04:57:54;-0.70;99.90
37786;DHT22;23625;48.784;9.336;2022-12-11T05:00:20;-0.70;99.90
37786;DHT22;23625;48.784;9.336;2022-12-11T05:02:45;-0.70;99.90
37786;DHT22;23625;48.784;9.336;2022-12-11T05:05:11;-0.60;99.90
37786;DHT22;23625;48.784;9.336;2022-12-11T05:07:37;-0.60;99.90
37786;DHT22;23625;48.784;9.336;2022-12-11T05:10:04;-0.60;99.90
37786;DHT22;23625;48.784;9.336;2022-12-11T05:12:31;-0.50;99.90
37786;DHT22;23625;48.784;9.336;2022-12-11T05:14:57;-0.50;99.90
37786;DHT22;23625;48.784;9.336;2022-12-11T05:17:22;-0.50;99.90
37786;DHT22;23625;48.784;9.336;2022-12-11T05:19:49;-0.40;99.90
37786;DHT22;23625;48.784;9.336;2022-12-11T05:22:15;-0.40;99.90
37786;DHT22;23625;48.784;9.336;2022-12-11T05:24:41;-0.50;99.90
37786;DHT22;23625;48.784;9.336;2022-12-11T05:27:07;-0.50;99.90
37786;DHT22;23625;48.784;9.336;2022-12-11T05:29:33;-0.50;99.90
37786;DHT22;23625;48.784;9.336;2022-12-11T05:31:58;-0.50;99.90
37786;DHT22;23625;48.784;9.336;2022-12-11T05:34:24;-0.50;99.90
37786;DHT22;23625;48.784;9.336;2022-12-11T05:36:49;-0.50;99.90
37786;DHT22;23625;48.784;9.336;2022-12-11T05:39:15;-0.60;99.90
37786;DHT22;23625;48.784;9.336;2022-12-11T05:41:40;-0.60;99.90
37786;DHT22;23625;48.784;9.336;2022-12-11T05:44:06;-0.60;99.90
37786;DHT22;23625;48.784;9.336;2022-12-11T05:46:32;-0.60;99.90
37786;DHT22;23625;48.784;9.336;2022-12-11T05:49:00;-0.50;99.90
37786;DHT22;23625;48.784;9.336;2022-12-11T05:51:26;-0.30;99.90
37786;DHT22;23625;48.784;9.336;2022-12-11T05:53:53;-0.50;99.90
37786;DHT22;23625;48.784;9.336;2022-12-11T05:56:22;-0.60;99.90
37786;DHT22;23625;48.784;9.336;2022-12-11T05:58:49;-0.70;99.90
37786;DHT22;23625;48.784;9.336;2022-12-11T06:01:22;-0.80;99.90
37786;DHT22;23625;48.784;9.336;2022-12-11T06:03:48;-0.80;99.90
37786;DHT22;23625;48.784;9.336;2022-12-11T06:06:14;-0.90;99.90
37786;DHT22;23625;48.784;9.336;2022-12-11T06:08:40;-0.90;99.90
37786;DHT22;23625;48.784;9.336;2022-12-11T06:11:06;-0.90;99.90
37786;DHT22;23625;48.784;9.336;2022-12-11T06:13:31;-0.90;99.90
37786;DHT22;23625;48.784;9.336;2022-12-11T06:16:01;-0.80;99.90
37786;DHT22;23625;48.784;9.336;2022-12-11T06:18:28;-0.80;99.90
37786;DHT22;23625;48.784;9.336;2022-12-11T06:20:53;-0.90;99.90
37786;DHT22;23625;48.784;9.336;2022-12-11T06:23:19;-1.00;99.90
37786;DHT22;23625;48.784;9.336;2022-12-11T06:25:44;-1.10;99.90
37786;DHT22;23625;48.784;9.336;2022-12-11T06:28:10;-1.10;99.90
37786;DHT22;23625;48.784;9.336;2022-12-11T06:30:35;-1.20;99.90
37786;DHT22;23625;48.784;9.336;2022-12-11T06:33:01;-1.20;99.90
37786;DHT22;23625;48.784;9.336;2022-12-11T06:35:27;-1.30;99.90
37786;DHT22;23625;48.784;9.336;2022-12-11T06:37:52;-1.40;99.90
37786;DHT22;23625;48.784;9.336;2022-12-11T06:40:18;-1.40;99.90
37786;DHT22;23625;48.784;9.336;2022-12-11T06:42:44;-1.40;99.90
37786;DHT22;23625;48.784;9.336;2022-12-11T06:45:10;-1.40;99.90
37786;DHT22;23625;48.784;9.336;2022-12-11T06:47:35;-1.40;99.90
37786;DHT22;23625;48.784;9.336;2022-12-11T06:50:01;-1.40;99.90
37786;DHT22;23625;48.784;9.336;2022-12-11T06:52:27;-1.50;99.90
37786;DHT22;23625;48.784;9.336;2022-12-11T06:54:53;-1.50;99.90
37786;DHT22;23625;48.784;9.336;2022-12-11T06:57:19;-1.40;99.90
37786;DHT22;23625;48.784;9.336;2022-12-11T06:59:45;-1.20;99.90
37786;DHT22;23625;48.784;9.336;2022-12-11T07:02:12;-1.30;99.90
37786;DHT22;23625;48.784;9.336;2022-12-11T07:04:38;-1.40;99.90
37786;DHT22;23625;48.784;9.336;2022-12-11T07:07:04;-1.50;99.90
37786;DHT22;23625;48.784;9.336;2022-12-11T07:09:30;-1.60;99.90
37786;DHT22;23625;48.784;9.336;2022-12-11T07:11:55;-1.60;99.90
37786;DHT22;23625;48.784;9.336;2022-12-11T07:14:21;-1.60;99.90
37786;DHT22;23625;48.784;9.336;2022-12-11T07:16:47;-1.60;99.90
37786;DHT22;23625;48.784;9.336;2022-12-11T07:19:12;-1.60;99.90
37786;DHT22;23625;48.784;9.336;2022-12-11T07:21:38;-1.70;99.90
37786;DHT22;23625;48.784;9.336;2022-12-11T07:24:04;-1.70;99.90
37786;DHT22;23625;48.784;9.336;2022-12-11T07:26:29;-1.60;99.90
37786;DHT22;23625;48.784;9.336;2022-12-11T07:28:59;-1.60;99.90
37786;DHT22;23625;48.784;9.336;2022-12-11T07:31:26;-1.60;99.90
37786;DHT22;23625;48.784;9.336;2022-12-11T07:33:53;-1.60;99.90
37786;DHT22;23625;48.784;9.336;2022-12-11T07:36:19;-1.60;99.90
37786;DHT22;23625;48.784;9.336;2022-12-11T07:38:45;-1.50;99.90
37786;DHT22;23625;48.784;9.336;2022-12-11T07:41:14;-1.50;99.90
37786;DHT22;23625;48.784;9.336;2022-12-11T07:43:40;-1.40;99.90
37786;DHT22;23625;48.784;9.336;2022-12-11T07:46:18;-1.40;99.90
37786;DHT22;23625;48.784;9.336;2022-12-11T07:48:45;-1.30;99.90
37786;DHT22;23625;48.784;9.336;2022-12-11T07:51:14;-1.30;99.90
37786;DHT22;23625;48.784;9.336;2022-12-11T07:53:42;-1.20;99.90
37786;DHT22;23625;48.784;9.336;2022-12-11T07:56:08;-1.20;99.90
37786;DHT22;23625;48.784;9.336;2022-12-11T07:58:34;-1.20;99.90
37786;DHT22;23625;48.784;9.336;2022-12-11T08:01:00;-1.20;99.90
37786;DHT22;23625;48.784;9.336;2022-12-11T08:03:26;-1.10;99.90
37786;DHT22;23625;48.784;9.336;2022-12-11T08:05:52;-1.10;99.90
37786;DHT22;23625;48.784;9.336;2022-12-11T08:08:18;-1.00;99.90
37786;DHT22;23625;48.784;9.336;2022-12-11T08:10:44;-1.00;99.90
37786;DHT22;23625;48.784;9.336;2022-12-11T08:13:10;-1.00;99.90
37786;DHT22;23625;48.784;9.336;2022-12-11T08:15:36;-1.00;99.90
37786;DHT22;23625;48.784;9.336;2022-12-11T08:18:01;-0.90;99.90
37786;DHT22;23625;48.784;9.336;2022-12-11T08:20:27;-0.90;99.90
37786;DHT22;23625;48.784;9.336;2022-12-11T08:22:53;-0.80;99.90
37786;DHT22;23625;48.784;9.336;2022-12-11T08:25:18;-0.80;99.90
37786;DHT22;23625;48.784;9.336;2022-12-11T08:27:44;-0.80;99.90
37786;DHT22;23625;48.784;9.336;2022-12-11T08:30:10;-0.70;99.90
37786;DHT22;23625;48.784;9.336;2022-12-11T08:32:36;-0.60;99.90
37786;DHT22;23625;48.784;9.336;2022-12-11T08:35:02;-0.60;99.90
37786;DHT22;23625;48.784;9.336;2022-12-11T08:37:27;-0.60;99.90
37786;DHT22;23625;48.784;9.336;2022-12-11T08:39:54;-0.50;99.90
37786;DHT22;23625;48.784;9.336;2022-12-11T08:42:19;-0.40;99.90
37786;DHT22;23625;48.784;9.336;2022-12-11T08:44:45;-0.40;99.90
37786;DHT22;23625;48.784;9.336;2022-12-11T08:47:11;-0.30;99.90
37786;DHT22;23625;48.784;9.336;2022-12-11T08:49:36;-0.30;99.90
37786;DHT22;23625;48.784;9.336;2022-12-11T08:52:03;-0.20;99.90
37786;DHT22;23625;48.784;9.336;2022-12-11T08:54:29;-0.20;99.90
37786;DHT22;23625;48.784;9.336;2022-12-11T08:56:55;-0.20;99.90
37786;DHT22;23625;48.784;9.336;2022-12-11T08:59:21;-0.20;99.90
37786;DHT22;23625;48.784;9.336;2022-12-11T09:01:46;-0.20;99.90
37786;DHT22;23625;48.784;9.336;2022-12-11T09:04:12;-0.10;99.90
37786;DHT22;23625;48.784;9.336;2022-12-11T09:06:37;-0.10;99.90
37786;DHT22;23625;48.784;9.336;2022-12-11T09:09:03;-0.10;99.90
37786;DHT22;23625;48.784;9.336;2022-12-11T09:11:32;-0.10;99.90
37786;DHT22;23625;48.784;9.336;2022-12-11T09:13:58;-0.10;99.90
37786;DHT22;23625;48.784;9.336;2022-12-11T09:16:25;0.00;99.90
37786;DHT22;23625;48.784;9.336;2022-12-11T09:18:53;0.00;99.90
37786;DHT22;23625;48.784;9.336;2022-12-11T09:21:22;0.00;99.90
37786;DHT22;23625;48.784;9.336;2022-12-11T09:23:48;0.00;99.90
37786;DHT22;23625;48.784;9.336;2022-12-11T09:26:15;0.00;99.90
37786;DHT22;23625;48.784;9.336;2022-12-11T09:28:41;0.00;99.90
37786;DHT22;23625;48.784;9.336;2022-12-11T09:31:13;0.00;99.90
37786;DHT22;23625;48.784;9.336;2022-12-11T09:33:39;0.00;99.90
37786;DHT22;23625;48.784;9.336;2022-12-11T09:36:05;0.10;99.90
37786;DHT22;23625;48.784;9.336;2022-12-11T09:38:32;0.10;99.90
37786;DHT22;23625;48.784;9.336;2022-12-11T09:40:58;0.10;99.90
37786;DHT22;23625;48.784;9.336;2022-12-11T09:45:55;0.10;99.90
37786;DHT22;23625;48.784;9.336;2022-12-11T09:48:23;0.10;99.90
37786;DHT22;23625;48.784;9.336;2022-12-11T09:50:52;0.10;99.90
37786;DHT22;23625;48.784;9.336;2022-12-11T09:53:26;0.10;99.90
37786;DHT22;23625;48.784;9.336;2022-12-11T09:56:04;0.10;99.90
37786;DHT22;23625;48.784;9.336;2022-12-11T10:04:33;0.10;99.90
37786;DHT22;23625;48.784;9.336;2022-12-11T10:07:22;0.20;99.90
37786;DHT22;23625;48.784;9.336;2022-12-11T10:17:51;0.20;99.90
37786;DHT22;23625;48.784;9.336;2022-12-11T10:20:27;0.30;99.90
37786;DHT22;23625;48.784;9.336;2022-12-11T10:22:56;0.30;99.90
37786;DHT22;23625;48.784;9.336;2022-12-11T10:25:28;0.30;99.90
37786;DHT22;23625;48.784;9.336;2022-12-11T10:27:54;0.30;99.90
37786;DHT22;23625;48.784;9.336;2022-12-11T10:30:43;0.30;99.90
37786;DHT22;23625;48.784;9.336;2022-12-11T10:35:50;0.40;99.90
37786;DHT22;23625;48.784;9.336;2022-12-11T10:38:20;0.40;99.90
37786;DHT22;23625;48.784;9.336;2022-12-11T10:40:56;0.50;99.90
37786;DHT22;23625;48.784;9.336;2022-12-11T10:43:45;0.50;99.90
37786;DHT22;23625;48.784;9.336;2022-12-11T10:46:28;0.70;99.90
37786;DHT22;23625;48.784;9.336;2022-12-11T10:48:59;0.70;99.90
37786;DHT22;23625;48.784;9.336;2022-12-11T10:51:35;0.70;99.90
37786;DHT22;23625;48.784;9.336;2022-12-11T10:54:14;0.70;99.90
37786;DHT22;23625;48.784;9.336;2022-12-11T10:56:45;0.80;99.90
37786;DHT22;23625;48.784;9.336;2022-12-11T10:59:22;0.80;99.90
37786;DHT22;23625;48.784;9.336;2022-12-11T11:01:48;0.80;99.90
37786;DHT22;23625;48.784;9.336;2022-12-11T11:04:19;0.80;99.90
37786;DHT22;23625;48.784;9.336;2022-12-11T11:06:45;0.80;99.90
37786;DHT22;23625;48.784;9.336;2022-12-11T11:09:40;0.90;99.90
37786;DHT22;23625;48.784;9.336;2022-12-11T11:12:22;0.90;99.90
37786;DHT22;23625;48.784;9.336;2022-12-11T11:15:13;1.00;99.90
37786;DHT22;23625;48.784;9.336;2022-12-11T11:17:51;1.10;99.90
37786;DHT22;23625;48.784;9.336;2022-12-11T11:20:20;1.10;99.90
37786;DHT22;23625;48.784;9.336;2022-12-11T11:22:49;1.20;99.90
37786;DHT22;23625;48.784;9.336;2022-12-11T11:27:48;1.10;99.90
37786;DHT22;23625;48.784;9.336;2022-12-11T11:30:23;1.10;99.90
37786;DHT22;23625;48.784;9.336;2022-12-11T11:32:52;1.20;99.90
37786;DHT22;23625;48.784;9.336;2022-12-11T11:35:21;1.20;99.90
37786;DHT22;23625;48.784;9.336;2022-12-11T11:38:00;1.10;99.90
37786;DHT22;23625;48.784;9.336;2022-12-11T11:40:43;1.10;99.90
37786;DHT22;23625;48.784;9.336;2022-12-11T11:43:36;1.00;99.90
37786;DHT22;23625;48.784;9.336;2022-12-11T11:51:35;1.20;99.90
37786;DHT22;23625;48.784;9.336;2022-12-11T11:54:54;1.30;99.90
37786;DHT22;23625;48.784;9.336;2022-12-11T11:56:55;1.20;99.90
37786;DHT22;23625;48.784;9.336;2022-12-11T11:59:35;1.30;99.90
37786;DHT22;23625;48.784;9.336;2022-12-11T12:02:13;1.30;99.90
37786;DHT22;23625;48.784;9.336;2022-12-11T12:04:40;1.50;99.90
37786;DHT22;23625;48.784;9.336;2022-12-11T12:13:04;1.60;99.90
37786;DHT22;23625;48.784;9.336;2022-12-11T12:15:43;1.70;99.90
37786;DHT22;23625;48.784;9.336;2022-12-11T12:24:10;1.80;99.90
37786;DHT22;23625;48.784;9.336;2022-12-11T12:26:39;1.80;99.90
37786;DHT22;23625;48.784;9.336;2022-12-11T12:32:14;1.90;99.90
37786;DHT22;23625;48.784;9.336;2022-12-11T12:37:19;1.80;99.90
37786;DHT22;23625;48.784;9.336;2022-12-11T12:45:28;1.50;99.90
37786;DHT22;23625;48.784;9.336;2022-12-11T12:47:52;1.50;99.90
37786;DHT22;23625;48.784;9.336;2022-12-11T12:50:20;1.50;99.90
37786;DHT22;23625;48.784;9.336;2022-12-11T12:52:48;1.40;99.90
37786;DHT22;23625;48.784;9.336;2022-12-11T12:55:20;1.40;99.90
37786;DHT22;23625;48.784;9.336;2022-12-11T13:00:41;1.30;99.90
37786;DHT22;23625;48.784;9.336;2022-12-11T13:03:15;1.20;99.90
37786;DHT22;23625;48.784;9.336;2022-12-11T13:05:44;1.30;99.90
37786;DHT22;23625;48.784;9.336;2022-12-11T13:08:27;1.30;99.90
37786;DHT22;23625;48.784;9.336;2022-12-11T13:11:02;1.20;99.90
37786;DHT22;23625;48.784;9.336;2022-12-11T13:13:40;1.20;99.90
37786;DHT22;23625;48.784;9.336;2022-12-11T13:18:46;1.10;99.90
37786;DHT22;23625;48.784;9.336;2022-12-11T13:21:33;1.00;99.90
37786;DHT22;23625;48.784;9.336;2022-12-11T13:26:47;0.90;99.90
37786;DHT22;23625;48.784;9.336;2022-12-11T13:29:35;0.90;99.90
37786;DHT22;23625;48.784;9.336;2022-12-11T13:32:21;0.90;99.90
37786;DHT22;23625;48.784;9.336;2022-12-11T13:34:54;1.50;99.90
37786;DHT22;23625;48.784;9.336;2022-12-11T13:37:30;0.90;99.90
37786;DHT22;23625;48.784;9.336;2022-12-11T13:39:58;0.90;99.90
37786;DHT22;23625;48.784;9.336;2022-12-11T13:42:30;0.80;99.90
37786;DHT22;23625;48.784;9.336;2022-12-11T13:44:56;0.80;99.90
37786;DHT22;23625;48.784;9.336;2022-12-11T13:47:22;0.80;99.90
37786;DHT22;23625;48.784;9.336;2022-12-11T13:49:53;0.80;99.90
37786;DHT22;23625;48.784;9.336;2022-12-11T13:52:24;0.80;99.90
37786;DHT22;23625;48.784;9.336;2022-12-11T13:54:52;0.80;99.90
37786;DHT22;23625;48.784;9.336;2022-12-11T13:57:20;0.70;99.90
37786;DHT22;23625;48.784;9.336;2022-12-11T13:59:48;0.70;99.90
37786;DHT22;23625;48.784;9.336;2022-12-11T14:02:33;0.70;99.90
37786;DHT22;23625;48.784;9.336;2022-12-11T14:05:03;0.70;99.90
37786;DHT22;23625;48.784;9.336;2022-12-11T14:07:36;0.70;99.90
37786;DHT22;23625;48.784;9.336;2022-12-11T14:10:13;0.70;99.90
37786;DHT22;23625;48.784;9.336;2022-12-11T14:12:48;0.70;99.90
37786;DHT22;23625;48.784;9.336;2022-12-11T14:15:14;0.70;99.90
37786;DHT22;23625;48.784;9.336;2022-12-11T14:17:42;0.70;99.90
37786;DHT22;23625;48.784;9.336;2022-12-11T14:20:28;0.60;99.90
37786;DHT22;23625;48.784;9.336;2022-12-11T14:23:17;0.60;99.90
37786;DHT22;23625;48.784;9.336;2022-12-11T14:25:58;0.60;99.90
37786;DHT22;23625;48.784;9.336;2022-12-11T14:28:25;0.60;99.90
37786;DHT22;23625;48.784;9.336;2022-12-11T14:30:54;0.50;99.90
37786;DHT22;23625;48.784;9.336;2022-12-11T14:33:22;0.50;99.90
37786;DHT22;23625;48.784;9.336;2022-12-11T14:35:50;0.50;99.90
37786;DHT22;23625;48.784;9.336;2022-12-11T14:40:49;0.60;99.90
37786;DHT22;23625;48.784;9.336;2022-12-11T14:43:36;0.60;99.90
37786;DHT22;23625;48.784;9.336;2022-12-11T14:46:09;0.60;99.90
37786;DHT22;23625;48.784;9.336;2022-12-11T14:48:45;0.60;99.90
37786;DHT22;23625;48.784;9.336;2022-12-11T14:51:15;0.60;99.90
37786;DHT22;23625;48.784;9.336;2022-12-11T14:53:45;0.50;99.90
37786;DHT22;23625;48.784;9.336;2022-12-11T14:56:21;0.50;99.90
37786;DHT22;23625;48.784;9.336;2022-12-11T14:58:52;0.40;99.90
37786;DHT22;23625;48.784;9.336;2022-12-11T15:01:28;0.40;99.90
37786;DHT22;23625;48.784;9.336;2022-12-11T15:04:14;0.40;99.90
37786;DHT22;23625;48.784;9.336;2022-12-11T15:06:48;0.40;99.90
37786;DHT22;23625;48.784;9.336;2022-12-11T15:09:38;0.40;99.90
37786;DHT22;23625;48.784;9.336;2022-12-11T15:12:17;0.40;99.90
37786;DHT22;23625;48.784;9.336;2022-12-11T15:15:01;0.40;99.90
37786;DHT22;23625;48.784;9.336;2022-12-11T15:17:28;0.40;99.90
37786;DHT22;23625;48.784;9.336;2022-12-11T15:20:00;0.40;99.90
37786;DHT22;23625;48.784;9.336;2022-12-11T15:22:30;0.40;99.90
37786;DHT22;23625;48.784;9.336;2022-12-11T15:24:56;0.50;99.90
37786;DHT22;23625;48.784;9.336;2022-12-11T15:27:36;0.50;99.90
37786;DHT22;23625;48.784;9.336;2022-12-11T15:30:27;0.40;99.90
37786;DHT22;23625;48.784;9.336;2022-12-11T15:35:34;0.50;99.90
37786;DHT22;23625;48.784;9.336;2022-12-11T15:37:59;0.40;99.90
37786;DHT22;23625;48.784;9.336;2022-12-11T15:40:25;0.30;99.90
37786;DHT22;23625;48.784;9.336;2022-12-11T15:42:51;0.40;99.90
37786;DHT22;23625;48.784;9.336;2022-12-11T15:45:24;0.40;99.90
37786;DHT22;23625;48.784;9.336;2022-12-11T15:47:51;0.50;99.90
37786;DHT22;23625;48.784;9.336;2022-12-11T15:50:25;0.40;99.90
37786;DHT22;23625;48.784;9.336;2022-12-11T15:52:52;0.40;99.90
37786;DHT22;23625;48.784;9.336;2022-12-11T15:55:20;0.50;99.90
37786;DHT22;23625;48.784;9.336;2022-12-11T15:57:53;0.40;99.90
37786;DHT22;23625;48.784;9.336;2022-12-11T16:00:19;0.30;99.90
37786;DHT22;23625;48.784;9.336;2022-12-11T16:02:46;0.30;99.90
37786;DHT22;23625;48.784;9.336;2022-12-11T16:05:12;0.20;99.90
37786;DHT22;23625;48.784;9.336;2022-12-11T16:07:38;0.10;99.90
37786;DHT22;23625;48.784;9.336;2022-12-11T16:10:05;0.10;99.90
37786;DHT22;23625;48.784;9.336;2022-12-11T16:12:30;0.10;99.90
37786;DHT22;23625;48.784;9.336;2022-12-11T16:14:56;0.10;99.90
37786;DHT22;23625;48.784;9.336;2022-12-11T16:17:22;0.10;99.90
37786;DHT22;23625;48.784;9.336;2022-12-11T16:19:48;0.20;99.90
37786;DHT22;23625;48.784;9.336;2022-12-11T16:22:16;0.10;99.90
37786;DHT22;23625;48.784;9.336;2022-12-11T16:24:42;0.20;99.90
37786;DHT22;23625;48.784;9.336;2022-12-11T16:27:08;0.10;99.90
37786;DHT22;23625;48.784;9.336;2022-12-11T16:29:37;0.10;99.90
37786;DHT22;23625;48.784;9.336;2022-12-11T16:32:04;0.10;99.90
37786;DHT22;23625;48.784;9.336;2022-12-11T16:34:32;0.10;99.90
37786;DHT22;23625;48.784;9.336;2022-12-11T16:36:58;0.10;99.90
37786;DHT22;23625;48.784;9.336;2022-12-11T16:39:23;0.10;99.90
37786;DHT22;23625;48.784;9.336;2022-12-11T16:41:49;0.10;99.90
37786;DHT22;23625;48.784;9.336;2022-12-11T16:44:20;0.10;99.90
37786;DHT22;23625;48.784;9.336;2022-12-11T16:46:46;0.00;99.90
37786;DHT22;23625;48.784;9.336;2022-12-11T16:49:12;0.00;99.90
37786;DHT22;23625;48.784;9.336;2022-12-11T16:51:38;0.10;99.90
37786;DHT22;23625;48.784;9.336;2022-12-11T16:54:03;0.10;99.90
37786;DHT22;23625;48.784;9.336;2022-12-11T16:56:29;0.00;99.90
37786;DHT22;23625;48.784;9.336;2022-12-11T16:58:54;-0.10;99.90
37786;DHT22;23625;48.784;9.336;2022-12-11T17:01:20;-0.10;99.90
37786;DHT22;23625;48.784;9.336;2022-12-11T17:03:46;-0.10;99.90
37786;DHT22;23625;48.784;9.336;2022-12-11T17:06:14;-0.10;99.90
37786;DHT22;23625;48.784;9.336;2022-12-11T17:08:41;-0.20;99.90